Time;durP1;ratioP1;P1;durP2;ratioP2;P2;SDS_P1;SDS_P2;PMS_P1;PMS_P2;Temp;Humidity;BMP_temperature;BMP_pressure;BME280_temperature;BME280_humidity;BME280_pressure;Samples;Min_cycle;Max_cycle;Signal;HPM_P1;HPM_P2
2021/08/14 00:00:23;;;;;;;8.25;6.70;;;;;;;;;;4896740;29;20080;-69
2021/08/14 00:02:49;;;;;;;9.35;7.22;;;;;;;;;;4895762;29;20048;-69
2021/08/14 00:05:17;;;;;;;8.18;7.38;;;;;;;;;;4896749;29;20055;-69
2021/08/14 00:07:43;;;;;;;8.98;7.35;;;;;;;;;;4896655;29;20061;-69
2021/08/14 00:10:10;;;;;;;8.25;7.30;;;;;;;;;;4896825;29;20092;-69
2021/08/14 00:12:37;;;;;;;8.13;7.15;;;;;;;;;;4896829;29;20057;-69
2021/08/14 00:15:04;;;;;;;7.97;6.97;;;;;;;;;;4896725;29;20491;-69
2021/08/14 00:17:31;;;;;;;9.95;7.20;;;;;;;;;;4896386;29;20092;-69
2021/08/14 00:19:57;;;;;;;9.07;7.72;;;;;;;;;;4896994;29;20092;-69
2021/08/14 00:22:24;;;;;;;12.82;9.85;;;;;;;;;;4896513;29;20089;-69
2021/08/14 00:24:50;;;;;;;10.80;8.10;;;;;;;;;;4896716;29;20052;-69
2021/08/14 00:27:17;;;;;;;9.75;8.18;;;;;;;;;;4882112;29;20092;-69
2021/08/14 00:29:44;;;;;;;10.75;8.57;;;;;;;;;;4877876;29;20186;-68
2021/08/14 00:32:11;;;;;;;11.48;8.60;;;;;;;;;;4877797;29;20445;-69
2021/08/14 00:34:38;;;;;;;9.48;8.45;;;;;;;;;;4877969;29;20084;-69
2021/08/14 00:37:04;;;;;;;9.48;8.07;;;;;;;;;;4889493;29;20057;-69
2021/08/14 00:39:31;;;;;;;9.38;7.50;;;;;;;;;;4896423;29;20460;-69
2021/08/14 00:41:58;;;;;;;10.38;7.65;;;;;;;;;;4896421;29;20427;-69
2021/08/14 00:44:24;;;;;;;11.18;8.40;;;;;;;;;;4896398;29;20140;-69
2021/08/14 00:46:51;;;;;;;11.90;8.15;;;;;;;;;;4896360;29;20104;-69
2021/08/14 00:49:17;;;;;;;10.68;8.30;;;;;;;;;;4896272;29;20053;-69
2021/08/14 00:51:44;;;;;;;11.23;8.30;;;;;;;;;;4896465;29;20140;-69
2021/08/14 00:54:10;;;;;;;10.23;8.15;;;;;;;;;;4896258;29;20088;-70
2021/08/14 00:56:37;;;;;;;9.48;7.55;;;;;;;;;;4888308;29;20064;-69
2021/08/14 00:59:05;;;;;;;12.10;8.38;;;;;;;;;;4877537;29;20136;-69
2021/08/14 01:01:33;;;;;;;10.77;7.88;;;;;;;;;;4877716;29;20521;-69
2021/08/14 01:04:00;;;;;;;8.65;7.75;;;;;;;;;;4876462;29;20144;-69
2021/08/14 01:06:26;;;;;;;9.45;7.75;;;;;;;;;;4877621;29;20104;-69
2021/08/14 01:08:54;;;;;;;12.10;8.15;;;;;;;;;;4876551;29;20057;-69
2021/08/14 01:11:21;;;;;;;12.13;8.65;;;;;;;;;;4881071;29;20508;-69
2021/08/14 01:13:48;;;;;;;11.35;8.27;;;;;;;;;;4880084;29;20076;-69
2021/08/14 01:16:15;;;;;;;9.02;7.57;;;;;;;;;;4881248;29;20108;-69
2021/08/14 01:18:43;;;;;;;11.60;9.00;;;;;;;;;;4881583;29;20084;-69
2021/08/14 01:21:23;;;;;;;12.02;9.55;;;;;;;;;;4880843;29;20053;-69
2021/08/14 01:23:52;;;;;;;11.65;9.38;;;;;;;;;;4881053;29;20103;-69
2021/08/14 01:26:18;;;;;;;13.05;9.02;;;;;;;;;;4884963;29;20148;-69
2021/08/14 01:28:45;;;;;;;12.18;9.43;;;;;;;;;;4899328;29;20112;-69
2021/08/14 01:34:59;;;;;;;11.10;9.00;;;;;;;;;;4899114;29;20047;-69
2021/08/14 01:37:27;;;;;;;10.82;8.77;;;;;;;;;;4898749;29;20060;-69
2021/08/14 01:39:53;;;;;;;10.80;9.25;;;;;;;;;;4898135;29;20084;-69
2021/08/14 01:42:20;;;;;;;10.63;8.68;;;;;;;;;;4899151;29;20095;-69
2021/08/14 01:44:46;;;;;;;11.20;9.10;;;;;;;;;;4899300;29;20048;-69
2021/08/14 01:47:14;;;;;;;13.98;9.25;;;;;;;;;;4899107;29;20087;-69
2021/08/14 01:49:40;;;;;;;11.27;9.23;;;;;;;;;;4899275;29;20088;-69
2021/08/14 01:52:17;;;;;;;10.35;8.77;;;;;;;;;;4899345;29;20076;-69
2021/08/14 01:54:46;;;;;;;14.30;8.90;;;;;;;;;;4899208;29;20112;-69
2021/08/14 01:57:13;;;;;;;10.43;8.45;;;;;;;;;;4898935;29;20084;-69
2021/08/14 01:59:39;;;;;;;10.10;8.32;;;;;;;;;;4899160;29;20052;-69
2021/08/14 02:02:06;;;;;;;13.30;8.60;;;;;;;;;;4893169;29;20504;-69
2021/08/14 02:04:33;;;;;;;11.77;8.45;;;;;;;;;;4880267;29;20053;-69
2021/08/14 02:07:00;;;;;;;9.65;7.80;;;;;;;;;;4878929;29;20053;-69
2021/08/14 02:09:27;;;;;;;8.63;7.63;;;;;;;;;;4880074;29;20049;-69
2021/08/14 02:11:54;;;;;;;10.73;8.85;;;;;;;;;;4886024;29;20087;-69
2021/08/14 02:14:20;;;;;;;12.57;8.00;;;;;;;;;;4879884;29;20117;-69
2021/08/14 02:16:47;;;;;;;9.95;8.27;;;;;;;;;;4880072;29;20049;-69
2021/08/14 02:19:14;;;;;;;10.27;7.97;;;;;;;;;;4879843;29;20543;-69
2021/08/14 02:21:40;;;;;;;10.00;8.48;;;;;;;;;;4879261;29;20196;-69
2021/08/14 02:24:07;;;;;;;11.65;9.10;;;;;;;;;;4879912;29;20143;-69
2021/08/14 02:26:33;;;;;;;9.85;8.27;;;;;;;;;;4879505;29;20049;-70
2021/08/14 02:29:00;;;;;;;11.23;9.05;;;;;;;;;;4879737;29;20048;-70
2021/08/14 02:31:26;;;;;;;10.30;9.20;;;;;;;;;;4879596;29;20099;-69
2021/08/14 02:33:53;;;;;;;10.73;8.60;;;;;;;;;;4879678;29;20056;-69
2021/08/14 02:36:20;;;;;;;11.90;9.50;;;;;;;;;;4879598;29;20093;-69
2021/08/14 02:38:47;;;;;;;12.48;9.35;;;;;;;;;;4879535;29;20088;-69
2021/08/14 02:41:14;;;;;;;12.48;9.73;;;;;;;;;;4879485;29;20103;-69
2021/08/14 02:43:40;;;;;;;11.20;8.95;;;;;;;;;;4878324;29;20052;-69
2021/08/14 02:46:07;;;;;;;11.10;8.68;;;;;;;;;;4879583;29;20109;-70
2021/08/14 02:48:34;;;;;;;14.90;9.75;;;;;;;;;;4879161;29;20053;-69
2021/08/14 02:51:00;;;;;;;10.02;8.50;;;;;;;;;;4880155;29;20121;-69
2021/08/14 02:53:27;;;;;;;10.93;8.60;;;;;;;;;;4879382;29;20100;-69
2021/08/14 02:55:53;;;;;;;12.50;8.73;;;;;;;;;;4879297;29;20096;-69
2021/08/14 02:58:20;;;;;;;11.93;8.70;;;;;;;;;;4893196;29;20053;-70
2021/08/14 03:00:47;;;;;;;12.52;9.75;;;;;;;;;;4879226;29;20053;-69
2021/08/14 03:03:13;;;;;;;9.52;8.57;;;;;;;;;;4879141;29;20145;-69
2021/08/14 03:05:41;;;;;;;12.00;9.65;;;;;;;;;;4878867;29;20057;-69
2021/08/14 03:08:10;;;;;;;11.88;9.48;;;;;;;;;;4878643;29;20505;-69
2021/08/14 03:10:41;;;;;;;9.80;8.57;;;;;;;;;;4878919;29;20085;-69
2021/08/14 03:13:08;;;;;;;11.40;9.60;;;;;;;;;;4878984;29;20084;-69
2021/08/14 03:15:35;;;;;;;11.60;9.23;;;;;;;;;;4878929;29;20049;-69
2021/08/14 03:18:02;;;;;;;10.13;8.68;;;;;;;;;;4878632;29;20080;-69
2021/08/14 03:20:29;;;;;;;11.25;9.10;;;;;;;;;;4878828;29;20513;-69
2021/08/14 03:22:55;;;;;;;11.18;8.40;;;;;;;;;;4877731;29;20186;-69
2021/08/14 03:25:22;;;;;;;12.65;9.07;;;;;;;;;;4877458;29;20095;-69
2021/08/14 03:27:49;;;;;;;12.77;9.60;;;;;;;;;;4878660;29;20121;-69
2021/08/14 03:30:17;;;;;;;10.38;9.27;;;;;;;;;;4878828;29;20501;-69
2021/08/14 03:32:44;;;;;;;11.02;9.52;;;;;;;;;;4877625;29;20684;-69
2021/08/14 03:35:13;;;;;;;10.73;9.25;;;;;;;;;;4878440;29;20052;-69
2021/08/14 03:37:40;;;;;;;12.02;9.18;;;;;;;;;;4878268;29;20085;-69
2021/08/14 03:40:08;;;;;;;12.13;9.73;;;;;;;;;;4878542;29;20080;-69
2021/08/14 03:42:34;;;;;;;10.18;8.80;;;;;;;;;;4878328;29;20084;-69
2021/08/14 03:45:01;;;;;;;12.98;9.90;;;;;;;;;;4887357;29;20083;-69
2021/08/14 03:47:27;;;;;;;10.77;8.60;;;;;;;;;;4896694;29;20088;-69
2021/08/14 03:49:54;;;;;;;11.25;9.95;;;;;;;;;;4897178;29;20492;-69
2021/08/14 03:52:23;;;;;;;12.27;9.85;;;;;;;;;;4897043;29;20084;-69
2021/08/14 03:54:49;;;;;;;11.90;10.02;;;;;;;;;;4895855;29;20091;-69
2021/08/14 03:57:16;;;;;;;12.05;10.10;;;;;;;;;;4896645;29;20080;-69
2021/08/14 03:59:43;;;;;;;11.57;10.07;;;;;;;;;;4896798;29;20116;-68
2021/08/14 04:02:09;;;;;;;14.13;9.95;;;;;;;;;;4896887;29;20084;-68
2021/08/14 04:04:36;;;;;;;15.70;10.07;;;;;;;;;;4896856;29;20063;-68
2021/08/14 04:07:03;;;;;;;13.20;9.65;;;;;;;;;;4896650;29;20088;-69
2021/08/14 04:09:29;;;;;;;13.30;10.05;;;;;;;;;;4896327;29;20060;-69
2021/08/14 04:11:56;;;;;;;13.48;9.40;;;;;;;;;;4896795;29;20080;-69
2021/08/14 04:14:22;;;;;;;14.68;9.45;;;;;;;;;;4896370;29;20476;-69
2021/08/14 04:16:52;;;;;;;14.93;10.10;;;;;;;;;;4896380;29;20059;-70
2021/08/14 04:19:19;;;;;;;11.85;9.75;;;;;;;;;;4894597;29;20052;-70
2021/08/14 04:21:47;;;;;;;12.55;10.25;;;;;;;;;;4896885;29;20092;-70
2021/08/14 04:24:14;;;;;;;12.70;10.25;;;;;;;;;;4892806;29;20060;-70
2021/08/14 04:26:40;;;;;;;11.05;9.27;;;;;;;;;;4913425;29;20083;-70
2021/08/14 04:29:07;;;;;;;14.50;10.40;;;;;;;;;;4911955;29;20099;-70
2021/08/14 04:31:33;;;;;;;12.30;8.65;;;;;;;;;;4896615;29;20068;-71
2021/08/14 04:34:00;;;;;;;14.60;10.32;;;;;;;;;;4897514;29;20127;-70
2021/08/14 04:36:27;;;;;;;13.50;10.50;;;;;;;;;;4901975;29;20099;-71
2021/08/14 04:38:53;;;;;;;11.95;9.48;;;;;;;;;;4907152;29;20083;-70
2021/08/14 04:41:20;;;;;;;12.80;9.40;;;;;;;;;;4911181;29;20087;-70
2021/08/14 04:43:46;;;;;;;11.02;9.02;;;;;;;;;;4911377;29;20055;-70
2021/08/14 04:46:13;;;;;;;16.58;9.48;;;;;;;;;;4920525;29;20108;-70
2021/08/14 04:48:40;;;;;;;13.30;9.65;;;;;;;;;;4920185;29;20444;-69
2021/08/14 04:51:06;;;;;;;10.95;9.27;;;;;;;;;;4919241;29;20056;-70
2021/08/14 04:53:33;;;;;;;11.07;9.75;;;;;;;;;;4919098;29;20104;-70
2021/08/14 04:56:00;;;;;;;12.05;10.15;;;;;;;;;;4902478;29;20071;-70
2021/08/14 04:58:26;;;;;;;11.68;9.38;;;;;;;;;;4918844;29;20056;-70
2021/08/14 05:00:53;;;;;;;11.80;9.98;;;;;;;;;;4912157;29;20115;-70
2021/08/14 05:03:23;;;;;;;13.02;10.25;;;;;;;;;;4900331;29;20480;-70
2021/08/14 05:05:49;;;;;;;13.38;10.27;;;;;;;;;;4899254;29;20041;-71
2021/08/14 05:08:16;;;;;;;11.98;10.00;;;;;;;;;;4901012;29;20056;-70
2021/08/14 05:10:42;;;;;;;12.88;10.13;;;;;;;;;;4899879;29;20493;-72
2021/08/14 05:13:09;;;;;;;12.77;9.90;;;;;;;;;;4895552;29;20056;-70
2021/08/14 05:15:36;;;;;;;12.02;10.18;;;;;;;;;;4918870;29;20489;-71
2021/08/14 05:18:03;;;;;;;13.18;10.40;;;;;;;;;;4906767;29;20071;-70
2021/08/14 05:20:29;;;;;;;13.60;9.80;;;;;;;;;;4902953;29;20081;-70
2021/08/14 05:22:56;;;;;;;13.98;10.02;;;;;;;;;;4900267;29;20401;-71
2021/08/14 05:25:22;;;;;;;12.48;10.45;;;;;;;;;;4901210;29;20080;-70
2021/08/14 05:27:49;;;;;;;14.45;10.35;;;;;;;;;;4898887;29;20053;-70
2021/08/14 05:30:15;;;;;;;15.93;10.13;;;;;;;;;;4912219;29;20472;-71
2021/08/14 05:32:42;;;;;;;13.40;10.65;;;;;;;;;;4918369;29;20096;-71
2021/08/14 05:35:09;;;;;;;12.38;10.48;;;;;;;;;;4919995;29;20052;-71
2021/08/14 05:37:35;;;;;;;14.05;11.18;;;;;;;;;;4919038;29;20517;-71
2021/08/14 05:40:02;;;;;;;13.90;10.73;;;;;;;;;;4918623;29;20121;-70
2021/08/14 05:42:29;;;;;;;15.20;10.20;;;;;;;;;;4918223;29;20056;-70
2021/08/14 05:44:55;;;;;;;17.83;10.40;;;;;;;;;;4917142;29;20083;-71
2021/08/14 05:47:22;;;;;;;13.13;10.15;;;;;;;;;;4918134;29;20048;-70
2021/08/14 05:49:49;;;;;;;14.00;11.00;;;;;;;;;;4918625;29;20475;-71
2021/08/14 05:52:17;;;;;;;13.80;10.98;;;;;;;;;;4888648;29;20113;-70
2021/08/14 05:54:44;;;;;;;15.02;10.27;;;;;;;;;;4894863;29;20121;-70
2021/08/14 05:57:10;;;;;;;12.68;10.07;;;;;;;;;;4898356;29;20129;-70
2021/08/14 05:59:37;;;;;;;12.05;9.90;;;;;;;;;;4900543;29;20057;-70
2021/08/14 06:02:04;;;;;;;17.25;11.50;;;;;;;;;;4882925;29;20101;-65
2021/08/14 06:04:30;;;;;;;15.02;11.23;;;;;;;;;;4891025;29;20048;-66
2021/08/14 06:06:57;;;;;;;15.30;10.70;;;;;;;;;;4880243;29;20077;-65
2021/08/14 06:09:24;;;;;;;14.43;11.18;;;;;;;;;;4879891;29;20074;-67
2021/08/14 06:11:50;;;;;;;12.52;10.68;;;;;;;;;;4880148;29;20556;-66
2021/08/14 06:14:17;;;;;;;15.90;10.85;;;;;;;;;;4892689;29;20049;-66
2021/08/14 06:16:43;;;;;;;14.18;10.65;;;;;;;;;;4898680;29;20493;-66
2021/08/14 06:19:10;;;;;;;15.45;10.43;;;;;;;;;;4898621;29;20060;-66
2021/08/14 06:21:36;;;;;;;14.60;10.52;;;;;;;;;;4898602;29;20052;-66
2021/08/14 06:24:03;;;;;;;12.38;10.13;;;;;;;;;;4894652;29;20053;-66
2021/08/14 06:26:30;;;;;;;12.40;10.35;;;;;;;;;;4879766;29;20398;-65
2021/08/14 06:28:56;;;;;;;13.82;11.18;;;;;;;;;;4879811;29;20098;-66
2021/08/14 06:31:23;;;;;;;16.05;9.98;;;;;;;;;;4879473;29;20084;-65
2021/08/14 06:33:50;;;;;;;13.80;10.10;;;;;;;;;;4879780;29;20083;-66
2021/08/14 06:36:16;;;;;;;10.45;9.18;;;;;;;;;;4879567;29;20481;-65
2021/08/14 06:38:43;;;;;;;12.68;9.60;;;;;;;;;;4879499;29;20081;-65
2021/08/14 06:41:09;;;;;;;12.35;9.50;;;;;;;;;;4879527;29;20108;-66
2021/08/14 06:43:36;;;;;;;10.60;9.15;;;;;;;;;;4879493;29;20096;-65
2021/08/14 06:46:03;;;;;;;10.68;9.13;;;;;;;;;;4879739;29;20081;-69
2021/08/14 06:48:33;;;;;;;11.25;8.98;;;;;;;;;;4879166;29;20053;-69
2021/08/14 06:50:59;;;;;;;12.80;9.95;;;;;;;;;;4879432;29;20077;-69
2021/08/14 06:53:26;;;;;;;12.93;9.02;;;;;;;;;;4879177;29;20052;-69
2021/08/14 06:55:53;;;;;;;11.88;9.13;;;;;;;;;;4879230;29;20057;-69
2021/08/14 06:58:19;;;;;;;12.07;8.60;;;;;;;;;;4879380;29;20057;-69
2021/08/14 07:00:46;;;;;;;11.55;9.25;;;;;;;;;;4862988;29;20088;-69
2021/08/14 07:03:13;;;;;;;13.98;10.13;;;;;;;;;;4879229;29;20113;-70
2021/08/14 07:05:40;;;;;;;12.02;9.55;;;;;;;;;;4879120;29;20100;-69
2021/08/14 07:08:07;;;;;;;13.13;9.63;;;;;;;;;;4878864;29;20053;-69
2021/08/14 07:10:33;;;;;;;10.20;9.15;;;;;;;;;;4879109;29;20057;-68
2021/08/14 07:13:00;;;;;;;13.18;9.00;;;;;;;;;;4886824;29;20044;-69
2021/08/14 07:15:27;;;;;;;9.95;8.82;;;;;;;;;;4897664;29;20095;-69
2021/08/14 07:17:54;;;;;;;12.65;8.65;;;;;;;;;;4897332;29;20052;-68
2021/08/14 07:20:21;;;;;;;10.85;8.75;;;;;;;;;;4897793;29;20095;-69
2021/08/14 07:22:51;;;;;;;11.80;8.77;;;;;;;;;;4897597;29;20087;-68
2021/08/14 07:25:19;;;;;;;13.27;8.95;;;;;;;;;;4897461;29;20080;-70
2021/08/14 07:27:45;;;;;;;10.20;8.50;;;;;;;;;;4880736;29;20053;-70
2021/08/14 07:30:12;;;;;;;9.05;7.75;;;;;;;;;;4897351;29;20091;-68
2021/08/14 07:32:39;;;;;;;11.30;9.27;;;;;;;;;;4897539;29;20048;-70
2021/08/14 07:35:06;;;;;;;10.95;8.25;;;;;;;;;;4897317;29;20094;-70
2021/08/14 07:37:33;;;;;;;14.25;8.55;;;;;;;;;;4897005;29;20080;-70
2021/08/14 07:40:00;;;;;;;13.25;8.65;;;;;;;;;;4897457;29;20139;-69
2021/08/14 07:42:27;;;;;;;11.38;8.48;;;;;;;;;;4897828;29;20496;-69
2021/08/14 07:44:55;;;;;;;10.98;8.02;;;;;;;;;;4910472;29;20075;-69
2021/08/14 07:47:21;;;;;;;10.43;8.13;;;;;;;;;;4915864;29;20152;-69
2021/08/14 07:49:48;;;;;;;9.98;7.82;;;;;;;;;;4916586;29;20465;-68
2021/08/14 07:52:15;;;;;;;12.98;8.48;;;;;;;;;;4915838;29;20368;-68
2021/08/14 07:54:41;;;;;;;10.35;7.63;;;;;;;;;;4916155;29;20055;-68
2021/08/14 07:57:08;;;;;;;7.93;7.10;;;;;;;;;;4915625;29;20075;-65
2021/08/14 07:59:35;;;;;;;7.85;6.78;;;;;;;;;;4916063;29;20060;-72
2021/08/14 08:02:01;;;;;;;8.98;6.95;;;;;;;;;;4873535;29;20070;-72
2021/08/14 08:04:28;;;;;;;8.32;6.85;;;;;;;;;;4888994;29;20524;-66
2021/08/14 08:06:55;;;;;;;8.73;7.18;;;;;;;;;;4882500;29;20061;-65
2021/08/14 08:09:22;;;;;;;10.52;7.20;;;;;;;;;;4882753;29;20087;-65
2021/08/14 08:11:48;;;;;;;8.82;6.70;;;;;;;;;;4883263;29;20053;-65
2021/08/14 08:14:15;;;;;;;10.30;6.55;;;;;;;;;;4881653;29;20064;-63
2021/08/14 08:16:41;;;;;;;9.77;6.28;;;;;;;;;;4881579;29;20040;-63
2021/08/14 08:19:09;;;;;;;8.63;6.55;;;;;;;;;;4880250;29;20540;-67
2021/08/14 08:21:35;;;;;;;8.73;6.32;;;;;;;;;;4887055;29;20096;-65
2021/08/14 08:24:02;;;;;;;8.98;6.40;;;;;;;;;;4893514;29;20081;-65
2021/08/14 08:26:29;;;;;;;7.45;6.22;;;;;;;;;;4884711;29;20076;-66
2021/08/14 08:28:55;;;;;;;10.75;7.15;;;;;;;;;;4882187;29;20084;-64
2021/08/14 08:31:23;;;;;;;9.38;6.90;;;;;;;;;;4885112;29;20072;-66
2021/08/14 08:33:50;;;;;;;8.70;6.18;;;;;;;;;;4882670;29;20097;-67
2021/08/14 08:36:16;;;;;;;7.97;5.93;;;;;;;;;;4884090;29;20087;-66
2021/08/14 08:38:43;;;;;;;8.45;6.53;;;;;;;;;;4886063;29;20842;-67
2021/08/14 08:41:10;;;;;;;9.18;6.97;;;;;;;;;;4884232;29;20504;-65
2021/08/14 08:43:40;;;;;;;7.68;6.25;;;;;;;;;;4882510;29;20091;-65
2021/08/14 08:46:10;;;;;;;8.85;5.65;;;;;;;;;;4883566;29;20212;-66
2021/08/14 08:48:38;;;;;;;8.95;5.43;;;;;;;;;;4884832;29;20112;-65
2021/08/14 08:51:04;;;;;;;7.80;5.40;;;;;;;;;;4885342;29;20053;-64
2021/08/14 08:53:31;;;;;;;6.05;5.20;;;;;;;;;;4885845;29;20080;-65
2021/08/14 08:55:57;;;;;;;6.90;5.60;;;;;;;;;;4885489;29;20084;-65
2021/08/14 08:58:24;;;;;;;8.70;6.18;;;;;;;;;;4885523;29;20071;-65
2021/08/14 09:00:51;;;;;;;6.38;5.25;;;;;;;;;;4881936;29;20084;-66
2021/08/14 09:03:19;;;;;;;6.65;5.05;;;;;;;;;;4887205;29;20052;-66
2021/08/14 09:05:51;;;;;;;6.57;5.47;;;;;;;;;;4881154;29;20060;-67
2021/08/14 09:08:17;;;;;;;6.45;5.72;;;;;;;;;;4881621;29;20080;-66
2021/08/14 09:10:44;;;;;;;6.57;5.22;;;;;;;;;;4882754;29;20076;-66
2021/08/14 09:13:16;;;;;;;6.65;5.43;;;;;;;;;;4883338;29;20114;-66
2021/08/14 09:15:43;;;;;;;7.80;5.22;;;;;;;;;;4883931;29;20124;-65
2021/08/14 09:18:11;;;;;;;7.10;5.57;;;;;;;;;;4882657;29;20412;-66
2021/08/14 09:20:45;;;;;;;10.75;5.32;;;;;;;;;;4886714;29;20081;-66
2021/08/14 09:23:13;;;;;;;8.48;5.53;;;;;;;;;;4885317;29;20061;-67
2021/08/14 09:25:40;;;;;;;9.05;5.43;;;;;;;;;;4883899;29;20117;-66
2021/08/14 09:28:07;;;;;;;7.45;5.70;;;;;;;;;;4882156;29;20124;-65
2021/08/14 09:31:02;;;;;;;7.53;5.32;;;;;;;;;;4884504;29;20412;-67
2021/08/14 09:33:30;;;;;;;9.07;6.30;;;;;;;;;;4886540;29;20139;-66
2021/08/14 09:35:58;;;;;;;7.63;5.20;;;;;;;;;;4886715;29;20052;-66
2021/08/14 09:38:40;;;;;;;6.18;5.57;;;;;;;;;;4885534;29;20132;-66
2021/08/14 09:41:08;;;;;;;8.93;6.03;;;;;;;;;;4885388;29;20057;-65
2021/08/14 09:43:35;;;;;;;8.90;5.75;;;;;;;;;;4887738;29;20131;-66
2021/08/14 09:46:01;;;;;;;6.97;4.78;;;;;;;;;;4886672;29;20077;-65
2021/08/14 09:48:28;;;;;;;6.88;5.20;;;;;;;;;;4884056;29;21199;-66
2021/08/14 09:50:55;;;;;;;5.88;5.20;;;;;;;;;;4887502;29;20088;-66
2021/08/14 09:53:23;;;;;;;8.35;5.28;;;;;;;;;;4886066;29;20057;-64
2021/08/14 09:56:11;;;;;;;6.97;5.10;;;;;;;;;;4885802;29;20406;-64
2021/08/14 09:58:39;;;;;;;6.28;4.78;;;;;;;;;;4884161;29;20108;-65
2021/08/14 10:01:07;;;;;;;7.32;5.70;;;;;;;;;;4886420;29;20053;-64
2021/08/14 10:03:34;;;;;;;7.00;5.72;;;;;;;;;;4885573;29;20473;-64
2021/08/14 10:06:02;;;;;;;8.73;5.35;;;;;;;;;;4886891;29;20762;-64
2021/08/14 10:08:30;;;;;;;9.73;5.55;;;;;;;;;;4883491;29;20053;-64
2021/08/14 10:10:57;;;;;;;6.60;4.85;;;;;;;;;;4882366;29;20049;-64
2021/08/14 10:13:24;;;;;;;6.78;5.25;;;;;;;;;;4886274;29;20317;-64
2021/08/14 10:15:52;;;;;;;6.43;5.18;;;;;;;;;;4885835;29;20053;-64
2021/08/14 10:18:19;;;;;;;6.80;5.00;;;;;;;;;;4886725;29;20049;-64
2021/08/14 10:20:47;;;;;;;8.65;4.80;;;;;;;;;;4889545;29;20080;-66
2021/08/14 10:23:22;;;;;;;7.55;5.63;;;;;;;;;;4883993;29;20488;-66
2021/08/14 10:26:02;;;;;;;6.10;5.50;;;;;;;;;;4884452;29;20052;-66
2021/08/14 10:28:47;;;;;;;7.28;5.20;;;;;;;;;;4889587;29;20459;-66
2021/08/14 10:31:29;;;;;;;10.70;7.25;;;;;;;;;;4885638;29;20132;-66
2021/08/14 10:33:56;;;;;;;7.85;5.75;;;;;;;;;;4890577;29;20057;-67
2021/08/14 10:36:26;;;;;;;6.57;5.10;;;;;;;;;;4883971;29;20101;-67
2021/08/14 10:38:53;;;;;;;7.68;5.32;;;;;;;;;;4890243;29;20513;-67
2021/08/14 10:41:20;;;;;;;8.07;5.72;;;;;;;;;;4891673;29;20052;-67
2021/08/14 10:43:53;;;;;;;9.38;5.88;;;;;;;;;;4885766;29;20080;-66
2021/08/14 10:46:37;;;;;;;6.45;5.28;;;;;;;;;;4887903;29;20080;-67
2021/08/14 10:49:06;;;;;;;6.70;5.63;;;;;;;;;;4890903;29;20049;-65
2021/08/14 10:51:48;;;;;;;6.22;5.63;;;;;;;;;;4895802;29;20045;-66
2021/08/14 10:54:27;;;;;;;6.10;5.50;;;;;;;;;;4888504;29;20064;-66
2021/08/14 10:57:01;;;;;;;7.80;5.80;;;;;;;;;;4884962;29;20076;-66
2021/08/14 10:59:34;;;;;;;8.98;6.00;;;;;;;;;;4886844;29;20152;-66
2021/08/14 11:02:07;;;;;;;7.25;5.72;;;;;;;;;;4886448;29;20049;-66
2021/08/14 11:04:46;;;;;;;8.15;6.00;;;;;;;;;;4886097;29;20200;-67
2021/08/14 11:10:01;;;;;;;6.28;5.40;;;;;;;;;;4888626;29;20061;-65
2021/08/14 11:12:34;;;;;;;8.77;5.80;;;;;;;;;;4884882;29;20091;-68
2021/08/14 11:15:13;;;;;;;7.47;5.78;;;;;;;;;;4891263;29;20048;-68
2021/08/14 11:17:41;;;;;;;7.57;5.65;;;;;;;;;;4886621;29;20049;-69
2021/08/14 11:20:23;;;;;;;6.32;5.68;;;;;;;;;;4884362;29;20059;-66
2021/08/14 11:22:51;;;;;;;7.88;6.00;;;;;;;;;;4885561;29;20060;-68
2021/08/14 11:25:25;;;;;;;8.77;6.15;;;;;;;;;;4887912;29;20051;-68
2021/08/14 11:28:01;;;;;;;8.25;5.88;;;;;;;;;;4888356;29;20073;-67
2021/08/14 11:30:42;;;;;;;8.63;6.35;;;;;;;;;;4884728;29;20512;-68
2021/08/14 11:33:10;;;;;;;7.47;5.97;;;;;;;;;;4887179;29;20096;-69
2021/08/14 11:35:40;;;;;;;7.63;5.80;;;;;;;;;;4887725;29;20393;-69
2021/08/14 11:38:11;;;;;;;7.10;5.85;;;;;;;;;;4885093;29;20074;-69
2021/08/14 11:40:43;;;;;;;8.52;5.80;;;;;;;;;;4883712;29;20056;-69
2021/08/14 11:43:14;;;;;;;6.55;5.28;;;;;;;;;;4882335;29;20110;-69
2021/08/14 11:45:43;;;;;;;8.13;6.30;;;;;;;;;;4884605;29;20108;-69
2021/08/14 11:48:12;;;;;;;7.15;5.90;;;;;;;;;;4884791;29;20045;-69
2021/08/14 11:50:43;;;;;;;7.80;4.88;;;;;;;;;;4884741;29;20543;-69
2021/08/14 11:53:16;;;;;;;6.57;5.50;;;;;;;;;;4884414;29;20484;-68
2021/08/14 11:55:43;;;;;;;6.75;5.13;;;;;;;;;;4899596;29;20466;-69
2021/08/14 11:58:09;;;;;;;7.63;5.70;;;;;;;;;;4888531;29;20622;-69
2021/08/14 12:00:37;;;;;;;7.13;5.60;;;;;;;;;;4883209;29;20500;-69
2021/08/14 12:03:14;;;;;;;8.35;6.72;;;;;;;;;;4885003;29;20049;-69
2021/08/14 12:05:46;;;;;;;12.82;6.13;;;;;;;;;;4886222;29;20048;-69
2021/08/14 12:08:29;;;;;;;7.50;6.22;;;;;;;;;;4885862;29;20315;-69
2021/08/14 12:10:56;;;;;;;8.25;5.90;;;;;;;;;;4884553;29;20516;-69
2021/08/14 12:13:22;;;;;;;7.43;5.53;;;;;;;;;;4882169;29;20108;-69
2021/08/14 12:16:20;;;;;;;6.82;5.72;;;;;;;;;;4888957;29;20150;-69
2021/08/14 12:18:48;;;;;;;6.97;5.32;;;;;;;;;;4885536;29;20053;-70
2021/08/14 12:21:17;;;;;;;6.25;5.63;;;;;;;;;;4884987;29;20128;-69
2021/08/14 12:23:45;;;;;;;6.63;5.88;;;;;;;;;;4881274;29;20049;-69
2021/08/14 12:26:25;;;;;;;6.70;5.68;;;;;;;;;;4883464;29;20080;-69
2021/08/14 12:28:58;;;;;;;9.68;5.85;;;;;;;;;;4886947;29;20077;-69
2021/08/14 12:31:25;;;;;;;6.88;5.65;;;;;;;;;;4887239;29;20095;-69
2021/08/14 12:33:53;;;;;;;8.27;5.55;;;;;;;;;;4883462;29;20056;-69
2021/08/14 12:36:36;;;;;;;8.02;5.57;;;;;;;;;;4885417;29;20060;-69
2021/08/14 12:39:04;;;;;;;9.50;4.88;;;;;;;;;;4885878;29;20052;-69
2021/08/14 12:41:41;;;;;;;6.70;5.47;;;;;;;;;;4883160;29;20109;-69
2021/08/14 12:44:09;;;;;;;5.85;5.35;;;;;;;;;;4886364;29;20088;-68
2021/08/14 12:46:37;;;;;;;6.18;5.45;;;;;;;;;;4884622;29;20153;-68
2021/08/14 12:49:23;;;;;;;8.27;5.25;;;;;;;;;;4882054;29;20072;-74
2021/08/14 12:52:07;;;;;;;8.25;5.15;;;;;;;;;;4882581;29;20304;-73
2021/08/14 12:54:38;;;;;;;6.25;4.78;;;;;;;;;;4887917;29;20083;-73
2021/08/14 12:57:09;;;;;;;5.47;4.97;;;;;;;;;;4891822;29;20474;-76
2021/08/14 12:59:37;;;;;;;6.85;5.28;;;;;;;;;;4886533;29;20121;-78
2021/08/14 13:02:06;;;;;;;6.80;5.15;;;;;;;;;;4887228;29;20056;-70
2021/08/14 13:04:33;;;;;;;5.38;4.82;;;;;;;;;;4884981;29;20093;-73
2021/08/14 13:07:01;;;;;;;5.25;4.70;;;;;;;;;;4890280;29;20048;-69
2021/08/14 13:09:27;;;;;;;5.55;4.93;;;;;;;;;;4885676;29;20504;-70
2021/08/14 13:11:57;;;;;;;5.82;4.90;;;;;;;;;;4894296;29;20049;-69
2021/08/14 13:14:24;;;;;;;8.10;5.70;;;;;;;;;;4889174;29;20053;-69
2021/08/14 13:16:54;;;;;;;5.65;5.10;;;;;;;;;;4903837;29;20052;-71
2021/08/14 13:19:21;;;;;;;5.40;4.90;;;;;;;;;;4873461;29;20055;-67
2021/08/14 13:21:50;;;;;;;5.13;4.68;;;;;;;;;;4890856;29;20052;-67
2021/08/14 13:24:21;;;;;;;5.15;4.57;;;;;;;;;;4892069;29;20324;-70
2021/08/14 13:26:51;;;;;;;5.68;5.07;;;;;;;;;;4875160;29;20073;-68
2021/08/14 13:29:18;;;;;;;5.28;4.78;;;;;;;;;;4885119;29;20052;-66
2021/08/14 13:31:45;;;;;;;5.63;5.10;;;;;;;;;;4888266;29;20092;-66
2021/08/14 13:34:12;;;;;;;7.32;4.80;;;;;;;;;;4888960;29;20112;-69
2021/08/14 13:36:39;;;;;;;5.18;4.78;;;;;;;;;;4888232;29;20515;-67
2021/08/14 13:39:06;;;;;;;5.15;4.65;;;;;;;;;;4886507;29;20120;-67
2021/08/14 13:41:34;;;;;;;7.30;5.30;;;;;;;;;;4888903;29;20099;-67
2021/08/14 13:44:04;;;;;;;6.65;5.22;;;;;;;;;;4892101;29;20054;-66
2021/08/14 13:46:31;;;;;;;6.25;5.10;;;;;;;;;;4888600;29;20520;-67
2021/08/14 13:48:58;;;;;;;7.03;4.70;;;;;;;;;;4887806;29;20124;-67
2021/08/14 13:51:25;;;;;;;10.15;5.10;;;;;;;;;;4888912;29;20567;-67
2021/08/14 13:53:53;;;;;;;6.13;4.85;;;;;;;;;;4888238;29;20144;-68
2021/08/14 13:56:25;;;;;;;5.10;4.60;;;;;;;;;;4896703;29;20125;-66
2021/08/14 13:58:51;;;;;;;6.57;5.00;;;;;;;;;;4891507;29;20108;-67
2021/08/14 14:01:18;;;;;;;5.13;4.72;;;;;;;;;;4883754;29;20088;-68
2021/08/14 14:03:45;;;;;;;5.85;4.60;;;;;;;;;;4886159;29;20069;-69
2021/08/14 14:06:12;;;;;;;5.45;4.95;;;;;;;;;;4885986;29;20504;-70
2021/08/14 14:08:38;;;;;;;6.25;4.90;;;;;;;;;;4887215;29;20082;-69
2021/08/14 14:11:05;;;;;;;6.40;5.13;;;;;;;;;;4891341;29;20084;-68
2021/08/14 14:13:32;;;;;;;8.15;4.82;;;;;;;;;;4886424;29;20555;-68
2021/08/14 14:15:58;;;;;;;5.18;4.68;;;;;;;;;;4889424;29;20084;-73
2021/08/14 14:18:25;;;;;;;5.55;4.90;;;;;;;;;;4888825;29;20044;-67
2021/08/14 14:20:51;;;;;;;5.68;4.72;;;;;;;;;;4885699;29;20048;-68
2021/08/14 14:23:18;;;;;;;7.18;4.82;;;;;;;;;;4884364;29;20091;-67
2021/08/14 14:25:45;;;;;;;8.30;5.20;;;;;;;;;;4883769;29;20140;-68
2021/08/14 14:28:11;;;;;;;5.68;4.95;;;;;;;;;;4890455;29;20053;-68
2021/08/14 14:30:41;;;;;;;5.53;5.00;;;;;;;;;;4884737;29;20124;-67
2021/08/14 14:33:08;;;;;;;6.90;4.90;;;;;;;;;;4891675;29;20052;-67
2021/08/14 14:35:35;;;;;;;6.88;4.85;;;;;;;;;;4886545;29;20461;-67
2021/08/14 14:38:01;;;;;;;6.75;5.20;;;;;;;;;;4888917;29;20084;-69
2021/08/14 14:40:30;;;;;;;6.55;4.72;;;;;;;;;;4894137;29;20095;-68
2021/08/14 14:42:56;;;;;;;5.28;4.78;;;;;;;;;;4894094;29;20045;-70
2021/08/14 14:45:23;;;;;;;5.60;5.07;;;;;;;;;;4896147;29;20113;-67
2021/08/14 14:47:49;;;;;;;7.55;4.70;;;;;;;;;;4886119;29;20076;-67